KCAO

Clayton Municipal Arpk Airport

Clayton, New Mexico, USA
METAR KCAO 201855Z AUTO 19008KT 140V210 10SM CLR 18/M03 A3043 RMK AO2 SLP275 T01781028
Observed Flight Rules
Oct-20 @ 18:55 UTC (25 minutes ago) Visual Flight Rules
Wind Visibility Clouds
190° at 8 knots 10 miles
  • Clear skies
Temperatures Readings
Current 18°C / 64°F
Dewpoint -3°C / 27°F
Humidity 24%
Altimeter 30.43" Hg
Pressure 1027.5 hPa
Elevation 1514
METAR KCAO 201855Z AUTO 19008KT 140V210 10SM CLR 18/M03 A3043 RMK AO2 SLP275 T01781028
Observed Flight Rules
Oct-20 @ 18:55 UTC
(25 minutes ago)
VFR
Wind Visibility
190° at 8 knots 10 miles
Clouds
  • Clear skies
Temperature Dewpoint
18°C / 64°F -3°C / 27°F
Humidity Altimeter Pressure
24% 30.43" Hg 1027.5 hPa